Time;durP1;ratioP1;P1;durP2;ratioP2;P2;SDS_P1;SDS_P2;PMS_P1;PMS_P2;Temp;Humidity;BMP_temperature;BMP_pressure;BME280_temperature;BME280_humidity;BME280_pressure;Samples;Min_cycle;Max_cycle;Signal;HPM_P1;HPM_P2
2022/10/08 00:00:53;;;;;;;9.70;2.53;;;;;;;-142.37;100.00;59669.53;5094650;28;20453;-72
2022/10/08 00:03:22;;;;;;;10.30;1.73;;;;;;;-142.37;100.00;59669.53;5094449;28;20032;-69
2022/10/08 00:05:55;;;;;;;11.65;2.28;;;;;;;-142.37;100.00;59669.53;5112832;28;20084;-71
2022/10/08 00:08:22;;;;;;;12.32;2.85;;;;;;;-142.37;100.00;59669.53;5094477;28;20027;-71
2022/10/08 00:11:16;;;;;;;9.75;2.42;;;;;;;-142.37;100.00;59669.53;5112726;28;20041;-71
2022/10/08 00:13:44;;;;;;;12.70;2.35;;;;;;;-142.37;100.00;59669.53;5090538;28;20046;-71
2022/10/08 00:16:39;;;;;;;11.38;2.25;;;;;;;-142.37;100.00;59669.53;5112637;28;20464;-71
2022/10/08 00:19:09;;;;;;;9.95;2.55;;;;;;;-142.37;100.00;59669.53;5094203;28;20035;-71
2022/10/08 00:21:40;;;;;;;10.65;2.60;;;;;;;-142.37;100.00;59669.53;5094266;28;20042;-70
2022/10/08 00:24:08;;;;;;;13.20;3.85;;;;;;;-142.37;100.00;59669.53;5112763;28;20122;-70
2022/10/08 00:26:35;;;;;;;7.80;2.28;;;;;;;-142.37;100.00;59669.53;5112490;28;20476;-69
2022/10/08 00:29:04;;;;;;;7.72;1.90;;;;;;;-142.37;100.00;59669.53;5112649;28;20032;-71
2022/10/08 00:31:32;;;;;;;9.15;2.05;;;;;;;-142.37;100.00;59669.53;5094375;28;20032;-70
2022/10/08 00:34:01;;;;;;;8.70;2.55;;;;;;;-142.37;100.00;59669.53;5112756;28;20027;-70
2022/10/08 00:36:30;;;;;;;9.05;2.28;;;;;;;-142.37;100.00;59669.53;5112482;28;20070;-70
2022/10/08 00:39:08;;;;;;;15.95;3.25;;;;;;;-142.37;100.00;59669.53;5112439;28;20032;-70
2022/10/08 00:41:37;;;;;;;13.23;2.58;;;;;;;-142.37;100.00;59669.53;5112315;28;20104;-70
2022/10/08 00:44:41;;;;;;;11.27;2.60;;;;;;;-142.37;100.00;59669.53;5094154;28;20051;-71
2022/10/08 00:47:21;;;;;;;5.95;1.85;;;;;;;-142.37;100.00;59669.53;5094000;28;20034;-71
2022/10/08 00:49:49;;;;;;;8.65;2.00;;;;;;;-142.37;100.00;59669.53;5093901;28;20027;-72
2022/10/08 00:52:17;;;;;;;7.53;1.55;;;;;;;-142.37;100.00;59669.53;5114538;28;20031;-71
2022/10/08 00:54:43;;;;;;;12.13;3.10;;;;;;;-142.37;100.00;59669.53;5098260;28;20028;-73
2022/10/08 00:57:10;;;;;;;11.63;2.20;;;;;;;-142.37;100.00;59669.53;5116619;28;20404;-71
2022/10/08 00:59:37;;;;;;;8.80;2.60;;;;;;;-142.37;100.00;59669.53;5098030;28;20464;-69
2022/10/08 01:02:07;;;;;;;9.02;1.58;;;;;;;-142.37;100.00;59669.53;5116212;28;20361;-70
2022/10/08 01:04:33;;;;;;;9.30;1.95;;;;;;;-142.37;100.00;59669.53;5116409;28;20077;-71
2022/10/08 01:07:09;;;;;;;12.65;2.10;;;;;;;-142.37;100.00;59669.53;5116261;28;20059;-73
2022/10/08 01:09:43;;;;;;;10.32;2.75;;;;;;;-142.37;100.00;59669.53;5116143;28;20495;-70
2022/10/08 01:12:41;;;;;;;6.88;2.03;;;;;;;-142.37;100.00;59669.53;5097945;28;20034;-72
2022/10/08 01:15:21;;;;;;;7.15;2.10;;;;;;;-142.37;100.00;59669.53;5076895;28;20071;-70
2022/10/08 01:18:09;;;;;;;10.75;3.22;;;;;;;-142.37;100.00;59669.53;5097589;28;20031;-69
2022/10/08 01:20:40;;;;;;;10.57;2.38;;;;;;;-142.37;100.00;59669.53;5097450;28;20114;-70
2022/10/08 01:23:33;;;;;;;14.70;2.60;;;;;;;-142.37;100.00;59669.53;5097207;28;20066;-71
2022/10/08 01:26:33;;;;;;;5.85;1.80;;;;;;;-142.37;100.00;59669.53;5115609;28;20030;-70
2022/10/08 01:29:22;;;;;;;13.10;2.00;;;;;;;-142.37;100.00;59669.53;5097173;28;20054;-70
2022/10/08 01:31:54;;;;;;;11.80;2.05;;;;;;;-142.37;100.00;59669.53;5097694;28;20090;-71
2022/10/08 01:34:49;;;;;;;9.32;1.70;;;;;;;-142.37;100.00;59669.53;5097741;28;20073;-71
2022/10/08 01:37:25;;;;;;;18.08;3.80;;;;;;;-142.37;100.00;59669.53;5094054;28;20046;-71
2022/10/08 01:39:54;;;;;;;7.50;1.63;;;;;;;-142.37;100.00;59669.53;5097194;28;20031;-71
2022/10/08 01:42:22;;;;;;;9.13;2.38;;;;;;;-142.37;100.00;59669.53;5116037;28;20406;-70
2022/10/08 01:44:53;;;;;;;11.10;1.70;;;;;;;-142.37;100.00;59669.53;5115439;28;20089;-71
2022/10/08 01:47:22;;;;;;;8.30;1.73;;;;;;;-142.37;100.00;59669.53;5115092;28;20035;-71
2022/10/08 01:49:57;;;;;;;11.90;1.95;;;;;;;-142.37;100.00;59669.53;5115760;28;20035;-71
2022/10/08 01:52:27;;;;;;;7.65;2.20;;;;;;;-142.37;100.00;59669.53;5097070;28;20116;-70
2022/10/08 01:55:02;;;;;;;7.53;1.48;;;;;;;-142.37;100.00;59669.53;5097124;28;20120;-71
2022/10/08 01:57:31;;;;;;;15.23;2.17;;;;;;;-142.37;100.00;59669.53;5096981;28;20028;-72
2022/10/08 02:00:04;;;;;;;7.78;1.95;;;;;;;-142.37;100.00;59669.53;5115308;28;20557;-69
2022/10/08 02:02:29;;;;;;;12.57;2.40;;;;;;;-142.37;100.00;59669.53;5096458;28;20027;-70
2022/10/08 02:04:55;;;;;;;7.55;2.38;;;;;;;-142.37;100.00;59669.53;5096863;28;20027;-71
2022/10/08 02:07:30;;;;;;;8.63;2.25;;;;;;;-142.37;100.00;59669.53;5115202;28;20070;-71
2022/10/08 02:10:13;;;;;;;10.85;2.97;;;;;;;-142.37;100.00;59669.53;5096712;28;20122;-70
2022/10/08 02:12:40;;;;;;;9.60;1.90;;;;;;;-142.37;100.00;59669.53;5096835;28;20126;-72
2022/10/08 02:15:10;;;;;;;7.03;1.70;;;;;;;-142.37;100.00;59669.53;5096254;28;20480;-70
2022/10/08 02:18:05;;;;;;;9.80;2.63;;;;;;;-142.37;100.00;59669.53;5115260;28;20031;-70
2022/10/08 02:20:39;;;;;;;10.10;2.23;;;;;;;-142.37;100.00;59669.53;5115271;28;20422;-70
2022/10/08 02:23:11;;;;;;;17.65;2.83;;;;;;;-142.37;100.00;59669.53;5096401;28;20024;-71
2022/10/08 02:25:56;;;;;;;10.50;1.75;;;;;;;-142.37;100.00;59669.53;5096428;28;20028;-71
2022/10/08 02:28:39;;;;;;;9.50;2.22;;;;;;;-142.37;100.00;59669.53;5096507;28;20445;-71
2022/10/08 02:31:19;;;;;;;12.23;2.10;;;;;;;-142.37;100.00;59669.53;5095925;28;20389;-70
2022/10/08 02:33:53;;;;;;;7.32;2.17;;;;;;;-142.37;100.00;59669.53;5114655;28;20165;-71
2022/10/08 02:36:24;;;;;;;10.48;2.13;;;;;;;-142.37;100.00;59669.53;5096187;28;20484;-71
2022/10/08 02:38:54;;;;;;;14.32;2.13;;;;;;;-142.37;100.00;59669.53;5114959;28;20030;-71
2022/10/08 02:41:25;;;;;;;8.65;2.47;;;;;;;-142.37;100.00;59669.53;5095935;28;20020;-71
2022/10/08 02:43:54;;;;;;;9.27;2.08;;;;;;;-142.37;100.00;59669.53;5114413;28;20038;-72
2022/10/08 02:46:23;;;;;;;8.82;2.58;;;;;;;-142.37;100.00;59669.53;5114441;28;20035;-71
2022/10/08 02:48:56;;;;;;;9.45;2.15;;;;;;;-142.37;100.00;59669.53;5114493;28;20030;-70
2022/10/08 02:51:26;;;;;;;11.75;2.83;;;;;;;-142.37;100.00;59669.53;5114605;28;20039;-73
2022/10/08 02:53:53;;;;;;;10.05;2.03;;;;;;;-142.37;100.00;59669.53;5114281;28;20035;-70
2022/10/08 02:56:28;;;;;;;10.88;2.00;;;;;;;-142.37;100.00;59669.53;5114306;28;20075;-70
2022/10/08 02:58:54;;;;;;;7.25;1.70;;;;;;;-142.37;100.00;59669.53;5118724;28;20028;-71
2022/10/08 03:01:31;;;;;;;11.55;2.08;;;;;;;-142.37;100.00;59669.53;5123696;28;20431;-71
2022/10/08 03:04:16;;;;;;;9.85;3.40;;;;;;;-142.37;100.00;59669.53;5099039;28;20503;-71
2022/10/08 03:06:43;;;;;;;10.00;2.70;;;;;;;-142.37;100.00;59669.53;5114202;28;20440;-70
2022/10/08 03:09:12;;;;;;;6.50;1.63;;;;;;;-142.37;100.00;59669.53;5114043;28;20059;-72
2022/10/08 03:11:38;;;;;;;8.70;1.80;;;;;;;-142.37;100.00;59669.53;5114134;28;20031;-72
2022/10/08 03:14:08;;;;;;;6.55;1.55;;;;;;;-142.37;100.00;59669.53;5113482;28;20039;-70
2022/10/08 03:16:46;;;;;;;9.77;1.90;;;;;;;-142.37;100.00;59669.53;5095438;28;20028;-70
2022/10/08 03:19:15;;;;;;;11.30;3.38;;;;;;;-142.37;100.00;59669.53;5113612;28;20046;-70
2022/10/08 03:21:43;;;;;;;6.70;1.80;;;;;;;-142.37;100.00;59669.53;5095204;28;20027;-71
2022/10/08 03:24:10;;;;;;;7.57;1.27;;;;;;;-142.37;100.00;59669.53;5113737;28;20035;-70
2022/10/08 03:26:36;;;;;;;7.60;1.42;;;;;;;-142.37;100.00;59669.53;5113745;28;20055;-71
2022/10/08 03:29:04;;;;;;;4.60;1.52;;;;;;;-142.37;100.00;59669.53;5113501;28;20031;-70
2022/10/08 03:31:30;;;;;;;9.65;1.65;;;;;;;-142.37;100.00;59669.53;5095107;28;20027;-70
2022/10/08 03:33:56;;;;;;;8.63;1.63;;;;;;;-142.37;100.00;59669.53;5113574;28;20031;-70
2022/10/08 03:36:24;;;;;;;10.73;1.60;;;;;;;-142.37;100.00;59669.53;5113279;28;20027;-70
2022/10/08 03:38:50;;;;;;;8.13;1.52;;;;;;;-142.37;100.00;59669.53;5095024;28;20056;-69
2022/10/08 03:41:17;;;;;;;5.57;1.23;;;;;;;-142.37;100.00;59669.53;5113308;28;20070;-70
2022/10/08 03:43:43;;;;;;;7.03;1.60;;;;;;;-142.37;100.00;59669.53;5094872;28;20028;-70
2022/10/08 03:46:10;;;;;;;8.45;1.60;;;;;;;-142.37;100.00;59669.53;5095063;28;20035;-71
2022/10/08 03:48:36;;;;;;;7.22;1.90;;;;;;;-142.37;100.00;59669.53;5094678;28;20066;-72
2022/10/08 03:51:06;;;;;;;7.13;1.80;;;;;;;-142.37;100.00;59669.53;5112560;28;20036;-69
2022/10/08 03:53:34;;;;;;;9.13;1.98;;;;;;;-142.37;100.00;59669.53;5094851;28;20039;-71
2022/10/08 03:56:04;;;;;;;8.43;2.05;;;;;;;-142.37;100.00;59669.53;5113053;28;20084;-72
2022/10/08 03:58:30;;;;;;;8.25;2.00;;;;;;;-142.37;100.00;59669.53;5094588;28;20384;-71
2022/10/08 04:01:01;;;;;;;5.30;2.60;;;;;;;-142.37;100.00;59669.53;5094673;28;20080;-71
2022/10/08 04:03:28;;;;;;;7.40;2.30;;;;;;;-142.37;100.00;59669.53;5094509;28;20038;-70
2022/10/08 04:05:53;;;;;;;7.97;2.00;;;;;;;-142.37;100.00;59669.53;5113114;28;20027;-69
2022/10/08 04:08:20;;;;;;;5.85;2.20;;;;;;;-142.37;100.00;59669.53;5113053;28;20138;-72
2022/10/08 04:10:45;;;;;;;8.63;1.60;;;;;;;-142.37;100.00;59669.53;5094507;28;20028;-72
2022/10/08 04:13:11;;;;;;;5.97;2.20;;;;;;;-142.37;100.00;59669.53;5094178;28;20408;-70
2022/10/08 04:15:37;;;;;;;5.90;1.80;;;;;;;-142.37;100.00;59669.53;5112940;28;20070;-72
2022/10/08 04:18:03;;;;;;;7.40;1.65;;;;;;;-142.37;100.00;59669.53;5094293;28;20027;-73
2022/10/08 04:20:31;;;;;;;5.13;1.73;;;;;;;-142.37;100.00;59669.53;5112608;28;20028;-71
2022/10/08 04:22:56;;;;;;;6.38;2.22;;;;;;;-142.37;100.00;59669.53;5094353;28;20491;-73
2022/10/08 04:25:22;;;;;;;4.13;1.52;;;;;;;-142.37;100.00;59669.53;5112890;28;20038;-73
2022/10/08 04:27:48;;;;;;;6.63;1.80;;;;;;;-142.37;100.00;59669.53;5094379;28;20080;-71
2022/10/08 04:30:15;;;;;;;3.40;1.08;;;;;;;-142.37;100.00;59669.53;5112790;28;20024;-72
2022/10/08 04:32:42;;;;;;;4.30;1.10;;;;;;;-142.37;100.00;59669.53;5094159;28;20027;-73
2022/10/08 04:35:08;;;;;;;4.25;1.30;;;;;;;-142.37;100.00;59669.53;5112471;28;20479;-69
2022/10/08 04:37:34;;;;;;;4.68;1.30;;;;;;;-142.37;100.00;59669.53;5112531;28;20027;-71
2022/10/08 04:39:59;;;;;;;3.75;1.60;;;;;;;-142.37;100.00;59669.53;5093963;28;20066;-73
2022/10/08 04:42:26;;;;;;;3.97;1.75;;;;;;;-142.37;100.00;59669.53;5112324;28;20050;-73
2022/10/08 04:44:51;;;;;;;4.90;1.25;;;;;;;-142.37;100.00;59669.53;5112333;28;20039;-73
2022/10/08 04:47:17;;;;;;;2.78;1.30;;;;;;;-142.37;100.00;59669.53;5112031;28;20442;-69
2022/10/08 04:49:43;;;;;;;2.47;0.98;;;;;;;-142.37;100.00;59669.53;5094319;28;20059;-72
2022/10/08 04:52:08;;;;;;;4.15;1.25;;;;;;;-142.37;100.00;59669.53;5094157;28;20024;-72
2022/10/08 04:54:34;;;;;;;1.95;1.08;;;;;;;-142.37;100.00;59669.53;5093612;28;20527;-71
2022/10/08 04:57:00;;;;;;;3.60;1.20;;;;;;;-142.37;100.00;59669.53;5112119;28;20395;-72
2022/10/08 04:59:26;;;;;;;2.17;0.85;;;;;;;-142.37;100.00;59669.53;5112179;28;20027;-73
2022/10/08 05:01:55;;;;;;;5.38;1.40;;;;;;;-142.37;100.00;59669.53;5112049;28;20437;-73
2022/10/08 05:04:22;;;;;;;3.72;1.20;;;;;;;-142.37;100.00;59669.53;5093839;28;20472;-71
2022/10/08 05:06:48;;;;;;;2.70;0.80;;;;;;;-142.37;100.00;59669.53;5094190;28;20437;-71
2022/10/08 05:09:14;;;;;;;2.05;0.95;;;;;;;-142.37;100.00;59669.53;5111925;28;20027;-73
2022/10/08 05:11:39;;;;;;;3.83;1.00;;;;;;;-142.37;100.00;59669.53;5112530;28;20073;-72
2022/10/08 05:14:05;;;;;;;4.53;1.15;;;;;;;-142.37;100.00;59669.53;5112324;28;20031;-73
2022/10/08 05:16:30;;;;;;;5.75;1.70;;;;;;;-142.37;100.00;59669.53;5112026;28;20104;-74
2022/10/08 05:18:57;;;;;;;5.25;1.10;;;;;;;-142.37;100.00;59669.53;5112097;28;20024;-72
2022/10/08 05:21:28;;;;;;;2.70;1.15;;;;;;;-142.37;100.00;59669.53;5093714;28;20040;-71
2022/10/08 05:24:05;;;;;;;2.25;0.60;;;;;;;-142.37;100.00;59669.53;5112058;28;20031;-71
2022/10/08 05:26:34;;;;;;;5.72;1.10;;;;;;;-142.37;100.00;59669.53;5111890;28;20388;-73
2022/10/08 05:29:00;;;;;;;2.88;1.02;;;;;;;-142.37;100.00;59669.53;5111552;28;20024;-73
2022/10/08 05:31:28;;;;;;;7.00;1.15;;;;;;;-142.37;100.00;59669.53;5112365;28;20035;-72
2022/10/08 05:33:54;;;;;;;2.40;0.77;;;;;;;-142.37;100.00;59669.53;5112451;28;20034;-72
2022/10/08 05:36:25;;;;;;;5.57;0.70;;;;;;;-142.37;100.00;59669.53;5093841;28;20118;-72
2022/10/08 05:38:52;;;;;;;2.05;1.00;;;;;;;-142.37;100.00;59669.53;5096152;28;20031;-71
2022/10/08 05:41:23;;;;;;;5.32;0.70;;;;;;;-142.37;100.00;59669.53;5115246;28;20065;-72
2022/10/08 05:43:50;;;;;;;4.40;1.50;;;;;;;-142.37;100.00;59669.53;5097322;28;20028;-72
2022/10/08 05:46:16;;;;;;;2.47;1.00;;;;;;;-142.37;100.00;59669.53;5115635;28;20525;-72
2022/10/08 05:48:43;;;;;;;3.95;1.10;;;;;;;-142.37;100.00;59669.53;5115210;28;20035;-72
2022/10/08 05:51:14;;;;;;;3.85;0.90;;;;;;;-142.37;100.00;59669.53;5115092;28;20032;-72
2022/10/08 05:53:43;;;;;;;1.20;0.85;;;;;;;-142.37;100.00;59669.53;5115198;28;20051;-72
2022/10/08 05:56:11;;;;;;;2.40;0.98;;;;;;;-142.37;100.00;59669.53;5115395;28;20055;-71
2022/10/08 05:58:38;;;;;;;2.85;0.90;;;;;;;-142.37;100.00;59669.53;5097234;28;20027;-72
2022/10/08 06:01:11;;;;;;;2.55;0.70;;;;;;;-142.37;100.00;59669.53;5115172;28;20059;-73
2022/10/08 06:03:38;;;;;;;2.22;0.73;;;;;;;-142.37;100.00;59669.53;5115130;28;20055;-72
2022/10/08 06:06:07;;;;;;;4.00;1.15;;;;;;;-142.37;100.00;59669.53;5096691;28;20031;-71
2022/10/08 06:08:34;;;;;;;2.15;0.85;;;;;;;-142.37;100.00;59669.53;5096605;28;20484;-72
2022/10/08 06:11:00;;;;;;;3.25;0.90;;;;;;;-142.37;100.00;59669.53;5115278;28;20342;-73
2022/10/08 06:13:26;;;;;;;4.15;1.52;;;;;;;-142.37;100.00;59669.53;5115412;28;20031;-72
2022/10/08 06:15:56;;;;;;;1.20;0.80;;;;;;;-142.37;100.00;59669.53;5115220;28;20480;-73
2022/10/08 06:18:22;;;;;;;2.25;0.50;;;;;;;-142.37;100.00;59669.53;5096483;28;20127;-72
2022/10/08 06:20:48;;;;;;;2.45;0.90;;;;;;;-142.37;100.00;59669.53;5114677;28;20038;-71
2022/10/08 06:23:13;;;;;;;4.05;0.70;;;;;;;-142.37;100.00;59669.53;5115115;28;20375;-72
2022/10/08 06:25:39;;;;;;;1.77;0.80;;;;;;;-142.37;100.00;59669.53;5096032;28;20555;-72
2022/10/08 06:28:04;;;;;;;1.67;0.77;;;;;;;-142.37;100.00;59669.53;5096528;28;20028;-73
2022/10/08 06:30:30;;;;;;;2.80;0.80;;;;;;;-142.37;100.00;59669.53;5096505;28;20028;-71
2022/10/08 06:32:56;;;;;;;1.42;0.77;;;;;;;-142.37;100.00;59669.53;5095920;28;20059;-75
2022/10/08 06:35:21;;;;;;;1.30;0.63;;;;;;;-142.37;100.00;59669.53;5096298;28;20027;-74
2022/10/08 06:37:48;;;;;;;2.78;0.90;;;;;;;-142.37;100.00;59669.53;5096345;28;20100;-73
2022/10/08 06:40:14;;;;;;;5.28;1.05;;;;;;;-142.37;100.00;59669.53;5096123;28;20129;-71
2022/10/08 06:42:40;;;;;;;2.05;0.70;;;;;;;-142.37;100.00;59669.53;5096294;28;20030;-72
2022/10/08 06:45:06;;;;;;;2.90;0.82;;;;;;;-142.37;100.00;59669.53;5095808;28;20391;-71
2022/10/08 06:47:31;;;;;;;3.25;0.70;;;;;;;-142.37;100.00;59669.53;5096050;28;20483;-71
2022/10/08 06:49:57;;;;;;;2.47;0.80;;;;;;;-142.37;100.00;59669.53;5094833;28;20034;-71
2022/10/08 06:52:23;;;;;;;3.60;0.75;;;;;;;-142.37;100.00;59669.53;5113979;28;20035;-72
2022/10/08 06:54:49;;;;;;;2.63;1.23;;;;;;;-142.37;100.00;59669.53;5114215;28;20055;-71
2022/10/08 06:57:15;;;;;;;4.68;0.93;;;;;;;-142.37;100.00;59669.53;5113617;28;20399;-73
2022/10/08 06:59:41;;;;;;;1.90;0.85;;;;;;;-142.37;100.00;59669.53;5114511;28;20114;-72
2022/10/08 07:02:09;;;;;;;1.95;0.90;;;;;;;-142.37;100.00;59669.53;5114016;28;20050;-72
2022/10/08 07:04:34;;;;;;;1.92;0.70;;;;;;;-142.37;100.00;59669.53;5113815;28;20455;-72
2022/10/08 07:07:00;;;;;;;5.60;1.27;;;;;;;-142.37;100.00;59669.53;5114196;28;20526;-72
2022/10/08 07:09:25;;;;;;;1.75;1.15;;;;;;;-142.37;100.00;59669.53;5095609;28;20023;-71
2022/10/08 07:11:51;;;;;;;0.75;0.25;;;;;;;-142.37;100.00;59669.53;5113926;28;20028;-72
2022/10/08 07:14:17;;;;;;;3.55;0.88;;;;;;;-142.37;100.00;59669.53;5095325;28;20059;-72
2022/10/08 07:16:42;;;;;;;4.60;0.93;;;;;;;-142.37;100.00;59669.53;5113875;28;20027;-74
2022/10/08 07:19:09;;;;;;;5.65;1.48;;;;;;;-142.37;100.00;59669.53;5113361;28;20031;-72
2022/10/08 07:21:34;;;;;;;2.15;0.88;;;;;;;-142.37;100.00;59669.53;5095387;28;20032;-72
2022/10/08 07:24:00;;;;;;;7.03;1.48;;;;;;;-142.37;100.00;59669.53;5095195;28;20096;-72
2022/10/08 07:26:28;;;;;;;7.03;1.13;;;;;;;-142.37;100.00;59669.53;5113461;28;20110;-70
2022/10/08 07:29:07;;;;;;;4.03;0.70;;;;;;;-142.37;100.00;59669.53;5113527;28;20035;-71
2022/10/08 07:31:35;;;;;;;6.20;1.02;;;;;;;-142.37;100.00;59669.53;5095022;28;20364;-72
2022/10/08 07:34:04;;;;;;;8.10;1.63;;;;;;;-142.37;100.00;59669.53;5094972;28;20023;-73
2022/10/08 07:36:31;;;;;;;4.22;1.33;;;;;;;-142.37;100.00;59669.53;5095116;28;20151;-72
2022/10/08 07:38:59;;;;;;;3.33;1.38;;;;;;;-142.37;100.00;59669.53;5112641;28;20498;-71
2022/10/08 07:41:25;;;;;;;6.85;1.25;;;;;;;-142.37;100.00;59669.53;5112951;28;20032;-73
2022/10/08 07:43:53;;;;;;;6.13;1.45;;;;;;;-142.37;100.00;59669.53;5094714;28;20085;-70
2022/10/08 07:46:20;;;;;;;3.75;1.00;;;;;;;-142.37;100.00;59669.53;5112743;28;20028;-71
2022/10/08 07:48:45;;;;;;;5.15;1.00;;;;;;;-142.37;100.00;59669.53;5112935;28;20077;-72
2022/10/08 07:51:17;;;;;;;4.93;1.23;;;;;;;-142.37;100.00;59669.53;5112710;28;20027;-72
2022/10/08 07:53:43;;;;;;;4.47;1.00;;;;;;;-142.37;100.00;59669.53;5094532;28;20062;-71
2022/10/08 07:56:11;;;;;;;3.25;0.80;;;;;;;-142.37;100.00;59669.53;5094342;28;20180;-71
2022/10/08 07:58:37;;;;;;;10.77;1.83;;;;;;;-142.37;100.00;59669.53;5094499;28;20032;-70
2022/10/08 08:01:05;;;;;;;7.00;1.40;;;;;;;-142.37;100.00;59669.53;5112226;28;20031;-72
2022/10/08 08:03:31;;;;;;;4.35;1.00;;;;;;;-142.37;100.00;59669.53;5112609;28;20050;-71
2022/10/08 08:06:04;;;;;;;14.18;2.65;;;;;;;-142.37;100.00;59669.53;5094220;28;20175;-71
2022/10/08 08:08:31;;;;;;;5.80;1.25;;;;;;;-142.37;100.00;59669.53;5112896;28;20081;-71
2022/10/08 08:10:57;;;;;;;5.57;1.35;;;;;;;-142.37;100.00;59669.53;5112504;28;20027;-72
2022/10/08 08:13:23;;;;;;;12.65;3.72;;;;;;;-142.37;100.00;59669.53;5094524;28;20023;-70
2022/10/08 08:15:59;;;;;;;10.73;1.70;;;;;;;-142.37;100.00;59669.53;5112776;28;20024;-72
2022/10/08 08:18:28;;;;;;;6.85;1.27;;;;;;;-142.37;100.00;59669.53;5112688;28;20023;-71
2022/10/08 08:21:02;;;;;;;6.82;1.40;;;;;;;-142.37;100.00;59669.53;5112686;28;20023;-71
2022/10/08 08:23:33;;;;;;;6.28;1.55;;;;;;;-142.37;100.00;59669.53;5112362;28;20042;-70
2022/10/08 08:26:03;;;;;;;5.80;1.73;;;;;;;-142.37;100.00;59669.53;5093664;28;20123;-71
2022/10/08 08:28:29;;;;;;;7.15;2.13;;;;;;;-142.37;100.00;59669.53;5112291;28;20031;-69
2022/10/08 08:31:06;;;;;;;11.18;1.55;;;;;;;-142.37;100.00;59669.53;5112247;28;20050;-72
2022/10/08 08:33:32;;;;;;;9.70;1.45;;;;;;;-142.37;100.00;59669.53;5093102;28;20028;-72
2022/10/08 08:35:57;;;;;;;4.13;0.85;;;;;;;-142.37;100.00;59669.53;5112241;28;20076;-72
2022/10/08 08:38:23;;;;;;;10.05;2.03;;;;;;;-142.37;100.00;59669.53;5112172;28;20047;-71
2022/10/08 08:40:49;;;;;;;8.18;2.00;;;;;;;-142.37;100.00;59669.53;5093582;28;20065;-70
2022/10/08 08:43:15;;;;;;;3.38;1.10;;;;;;;-142.37;100.00;59669.53;5111921;28;20337;-71
2022/10/08 08:45:42;;;;;;;8.48;1.23;;;;;;;-142.37;100.00;59669.53;5112266;28;20489;-72
2022/10/08 08:48:27;;;;;;;4.57;1.42;;;;;;;-142.37;100.00;59669.53;5112125;28;20157;-71
2022/10/08 08:50:55;;;;;;;;;;;;;;;-142.37;100.00;59669.53;5094041;28;20407;-69
2022/10/08 08:53:21;;;;;;;4.82;0.98;;;;;;;-142.37;100.00;59669.53;5093645;28;19980;-69
2022/10/08 08:55:52;;;;;;;7.85;1.60;;;;;;;-142.37;100.00;59669.53;5111435;28;20488;-66
2022/10/08 08:58:39;;;;;;;6.13;1.40;;;;;;;-142.37;100.00;59669.53;5093864;28;20039;-67
2022/10/08 09:01:07;;;;;;;11.77;2.40;;;;;;;-142.37;100.00;59669.53;5111601;28;20032;-67
2022/10/08 09:03:52;;;;;;;8.52;2.47;;;;;;;-142.37;100.00;59669.53;5093634;28;20035;-67
2022/10/08 09:06:21;;;;;;;7.43;1.25;;;;;;;-142.37;100.00;59669.53;5093747;28;20020;-67
2022/10/08 09:09:15;;;;;;;13.23;2.55;;;;;;;-142.37;100.00;59669.53;5111530;28;20326;-67
2022/10/08 09:11:42;;;;;;;5.68;0.88;;;;;;;-142.37;100.00;59669.53;5093210;28;20031;-65
2022/10/08 09:14:08;;;;;;;5.55;0.88;;;;;;;-142.37;100.00;59669.53;5115297;28;20051;-66
2022/10/08 09:16:35;;;;;;;5.95;1.58;;;;;;;-142.37;100.00;59669.53;5097432;28;20432;-66
2022/10/08 09:19:00;;;;;;;8.80;1.90;;;;;;;-142.37;100.00;59669.53;5097130;28;20028;-65
2022/10/08 09:21:30;;;;;;;4.78;1.48;;;;;;;-142.37;100.00;59669.53;5115670;28;20369;-65
2022/10/08 09:23:56;;;;;;;4.03;1.25;;;;;;;-142.37;100.00;59669.53;5115547;28;20386;-66
2022/10/08 09:26:24;;;;;;;3.72;1.35;;;;;;;-142.37;100.00;59669.53;5097427;28;20032;-65
2022/10/08 09:28:52;;;;;;;6.15;1.35;;;;;;;-142.37;100.00;59669.53;5097273;28;20107;-66
2022/10/08 09:31:29;;;;;;;6.97;1.90;;;;;;;-142.37;100.00;59669.53;5114856;28;20031;-65
2022/10/08 09:34:14;;;;;;;8.15;1.55;;;;;;;-142.37;100.00;59669.53;5115161;28;20027;-66
2022/10/08 09:36:47;;;;;;;7.53;1.38;;;;;;;-142.37;100.00;59669.53;5115215;28;20027;-65
2022/10/08 09:39:22;;;;;;;6.40;1.27;;;;;;;-142.37;100.00;59669.53;5097090;28;20539;-64
2022/10/08 09:42:06;;;;;;;8.13;1.75;;;;;;;-142.37;100.00;59669.53;5114985;28;20030;-65
2022/10/08 09:44:44;;;;;;;5.93;1.75;;;;;;;-142.37;100.00;59669.53;5096627;28;20132;-65
2022/10/08 09:47:12;;;;;;;4.43;1.00;;;;;;;-142.37;100.00;59669.53;5114820;28;20032;-64
2022/10/08 09:49:38;;;;;;;6.68;1.85;;;;;;;-142.37;100.00;59669.53;5115858;28;20039;-65
2022/10/08 09:52:22;;;;;;;6.15;1.25;;;;;;;-142.37;100.00;59669.53;5096667;28;20027;-66
2022/10/08 09:54:55;;;;;;;3.78;1.35;;;;;;;-142.37;100.00;59669.53;5096472;28;20093;-65
2022/10/08 09:57:21;;;;;;;4.97;1.08;;;;;;;-142.37;100.00;59669.53;5114854;28;20024;-67
2022/10/08 09:59:53;;;;;;;7.25;1.73;;;;;;;-142.37;100.00;59669.53;5114676;28;20030;-66
2022/10/08 10:02:36;;;;;;;6.18;1.30;;;;;;;-142.37;100.00;59669.53;5096395;28;20027;-66
2022/10/08 10:05:22;;;;;;;7.72;1.90;;;;;;;-142.37;100.00;59669.53;5095758;28;20129;-67
2022/10/08 10:07:47;;;;;;;7.05;1.33;;;;;;;-142.37;100.00;59669.53;5096194;28;20034;-66
2022/10/08 10:10:33;;;;;;;8.68;1.75;;;;;;;-142.37;100.00;59669.53;5114421;28;20391;-65
2022/10/08 10:13:25;;;;;;;4.38;1.77;;;;;;;-142.37;100.00;59669.53;5095759;28;20028;-66
2022/10/08 10:16:16;;;;;;;4.30;1.10;;;;;;;-142.37;100.00;59669.53;5114176;28;20503;-66
2022/10/08 10:19:19;;;;;;;7.80;1.40;;;;;;;-142.37;100.00;59669.53;5114099;28;20034;-67
2022/10/08 10:21:56;;;;;;;5.93;1.60;;;;;;;-142.37;100.00;59669.53;5094594;28;20418;-67
2022/10/08 10:24:31;;;;;;;7.10;2.00;;;;;;;-142.37;100.00;59669.53;5114022;28;20506;-67
2022/10/08 10:27:05;;;;;;;4.63;0.90;;;;;;;-142.37;100.00;59669.53;5095668;28;20039;-67
2022/10/08 10:29:47;;;;;;;9.57;1.15;;;;;;;-142.37;100.00;59669.53;5095729;28;20092;-67
2022/10/08 10:32:29;;;;;;;6.63;1.40;;;;;;;-142.37;100.00;59669.53;5114063;28;20039;-67
2022/10/08 10:35:05;;;;;;;8.32;2.53;;;;;;;-142.37;100.00;59669.53;5114096;28;20123;-65
2022/10/08 10:37:48;;;;;;;8.05;1.85;;;;;;;-142.37;100.00;59669.53;5113970;28;20028;-67
2022/10/08 10:40:34;;;;;;;3.67;1.25;;;;;;;-142.37;100.00;59669.53;5114099;28;20027;-68
2022/10/08 10:43:10;;;;;;;6.47;1.73;;;;;;;-142.37;100.00;59669.53;5095097;28;20035;-68
2022/10/08 10:45:38;;;;;;;6.53;1.58;;;;;;;-142.37;100.00;59669.53;5095373;28;20084;-66
2022/10/08 10:48:06;;;;;;;5.07;1.20;;;;;;;-142.37;100.00;59669.53;5113652;28;20034;-67
2022/10/08 10:51:06;;;;;;;6.97;1.33;;;;;;;-142.37;100.00;59669.53;5095192;28;20024;-67
2022/10/08 10:53:45;;;;;;;7.68;1.20;;;;;;;-142.37;100.00;59669.53;5113913;28;20131;-66
2022/10/08 10:56:16;;;;;;;7.95;1.73;;;;;;;-142.37;100.00;59669.53;5077295;28;20459;-68
2022/10/08 10:59:20;;;;;;;13.35;2.28;;;;;;;-142.37;100.00;59669.53;5073030;28;20111;-67
2022/10/08 11:02:10;;;;;;;8.65;1.42;;;;;;;-142.37;100.00;59669.53;5072984;28;20077;-67
2022/10/08 11:05:03;;;;;;;9.27;1.70;;;;;;;-142.37;100.00;59669.53;5071337;28;20396;-67
2022/10/08 11:08:05;;;;;;;6.40;1.50;;;;;;;-142.37;100.00;59669.53;5072829;28;20101;-68
2022/10/08 11:10:50;;;;;;;6.25;1.73;;;;;;;-142.37;100.00;59669.53;5071163;28;20025;-68
2022/10/08 11:13:43;;;;;;;5.43;1.20;;;;;;;-142.37;100.00;59669.53;5072353;28;20108;-68
2022/10/08 11:16:38;;;;;;;7.07;1.40;;;;;;;-142.37;100.00;59669.53;5071125;28;20261;-67
2022/10/08 11:19:10;;;;;;;6.95;1.67;;;;;;;-142.37;100.00;59669.53;5072436;28;20032;-68
2022/10/08 11:22:13;;;;;;;7.75;1.67;;;;;;;-142.37;100.00;59669.53;5071156;28;20035;-68
2022/10/08 11:24:59;;;;;;;7.88;1.75;;;;;;;-142.37;100.00;59669.53;5070811;28;20119;-69
2022/10/08 11:27:45;;;;;;;5.70;1.13;;;;;;;-142.37;100.00;59669.53;5072365;28;20060;-67
2022/10/08 11:30:16;;;;;;;4.63;1.67;;;;;;;-142.37;100.00;59669.53;5070832;28;20036;-67